createdAt,value
2022-09-12T00:01:07.123Z,4.12
2022-09-12T00:03:36.474Z,3.90
2022-09-12T00:06:09.299Z,3.55
2022-09-12T00:08:37.559Z,3.97
2022-09-12T00:11:09.473Z,3.45
2022-09-12T00:13:41.442Z,3.47
2022-09-12T00:16:21.671Z,3.30
2022-09-12T00:18:49.565Z,3.20
2022-09-12T00:21:17.887Z,3.50
2022-09-12T00:23:46.133Z,3.53
2022-09-12T00:26:14.207Z,3.62
2022-09-12T00:28:42.087Z,3.62
2022-09-12T00:31:15.681Z,3.53
2022-09-12T00:33:43.794Z,3.10
2022-09-12T00:36:16.972Z,3.42
2022-09-12T00:38:45.501Z,2.95
2022-09-12T00:41:37.570Z,3.90
2022-09-12T00:44:24.167Z,3.17
2022-09-12T00:47:01.326Z,3.42
2022-09-12T00:49:49.685Z,3.47
2022-09-12T00:52:22.453Z,3.40
2022-09-12T00:54:56.092Z,3.42
2022-09-12T00:57:28.482Z,3.92
2022-09-12T01:00:17.463Z,4.15
2022-09-12T01:02:48.263Z,3.97
2022-09-12T01:05:16.204Z,4.15
2022-09-12T01:07:44.713Z,4.28
2022-09-12T01:10:12.185Z,4.18
2022-09-12T01:12:41.352Z,4.72
2022-09-12T01:15:09.231Z,4.93
2022-09-12T01:18:27.690Z,4.40
2022-09-12T01:21:00.136Z,4.97
2022-09-12T01:24:15.105Z,4.93
2022-09-12T01:26:58.141Z,4.78
2022-09-12T01:29:40.552Z,5.05
2022-09-12T01:32:23.683Z,4.90
2022-09-12T01:35:10.065Z,5.10
2022-09-12T01:37:51.604Z,5.18
2022-09-12T01:40:24.035Z,5.40
2022-09-12T01:43:16.066Z,6.07
2022-09-12T01:45:46.719Z,6.00
2022-09-12T01:48:21.127Z,6.10
2022-09-12T01:51:02.519Z,6.07
2022-09-12T01:53:35.228Z,6.10
2022-09-12T01:56:08.843Z,5.87
2022-09-12T01:58:50.722Z,6.00
2022-09-12T02:01:21.923Z,6.20
2022-09-12T02:03:54.205Z,7.05
2022-09-12T02:06:33.034Z,7.12
2022-09-12T02:09:08.224Z,6.28
2022-09-12T02:11:39.888Z,7.78
2022-09-12T02:14:11.524Z,7.07
2022-09-12T02:16:51.578Z,7.45
2022-09-12T02:19:29.998Z,7.70
2022-09-12T02:22:02.454Z,7.25
2022-09-12T02:24:34.102Z,7.70
2022-09-12T02:27:24.993Z,7.55
2022-09-12T02:29:53.501Z,6.22
2022-09-12T02:32:35.136Z,6.85
2022-09-12T02:35:31.203Z,6.82
2022-09-12T02:38:11.630Z,6.65
2022-09-12T02:40:39.293Z,6.78
2022-09-12T02:43:07.313Z,6.22
2022-09-12T02:45:35.975Z,6.87
2022-09-12T02:48:03.786Z,5.93
2022-09-12T02:50:32.157Z,6.78
2022-09-12T02:53:04.937Z,6.37
2022-09-12T02:55:33.616Z,6.95
2022-09-12T02:58:06.360Z,6.57
2022-09-12T03:00:59.055Z,6.22
2022-09-12T03:03:54.257Z,5.72
2022-09-12T03:06:36.233Z,6.53
2022-09-12T03:09:14.099Z,5.40
2022-09-12T03:11:53.984Z,6.57
2022-09-12T03:14:43.079Z,6.30
2022-09-12T03:17:35.925Z,6.30
2022-09-12T03:20:25.144Z,6.22
2022-09-12T03:23:04.442Z,6.20
2022-09-12T03:25:35.982Z,6.20
2022-09-12T03:28:08.156Z,6.37
2022-09-12T03:30:44.115Z,7.20
2022-09-12T03:33:13.615Z,7.37
2022-09-12T03:35:41.496Z,7.18
2022-09-12T03:38:09.153Z,7.03
2022-09-12T03:40:38.325Z,7.62
2022-09-12T03:43:06.393Z,7.70
2022-09-12T03:45:34.163Z,7.53
2022-09-12T03:48:02.514Z,7.68
2022-09-12T03:50:30.033Z,7.22
2022-09-12T03:52:59.686Z,7.35
2022-09-12T03:55:27.566Z,7.22
2022-09-12T03:57:55.309Z,7.07
2022-09-12T04:00:22.872Z,7.68
2022-09-12T04:02:55.161Z,7.43
2022-09-12T04:05:23.655Z,7.25
2022-09-12T04:07:51.555Z,7.55
2022-09-12T04:10:18.986Z,7.53
2022-09-12T04:12:46.361Z,8.38
2022-09-12T04:15:14.611Z,7.78
2022-09-12T04:17:42.000Z,7.68
2022-09-12T04:20:09.583Z,7.97
2022-09-12T04:22:37.215Z,7.57
2022-09-12T04:25:04.983Z,8.38
2022-09-12T04:27:32.422Z,8.23
2022-09-12T04:30:01.205Z,8.50
2022-09-12T04:32:30.983Z,7.75
2022-09-12T04:34:58.479Z,7.57
2022-09-12T04:37:26.283Z,7.57
2022-09-12T04:39:57.821Z,8.00
2022-09-12T04:42:26.207Z,8.25
2022-09-12T04:44:53.551Z,8.20
2022-09-12T04:47:21.059Z,8.15
2022-09-12T04:49:48.888Z,8.85
2022-09-12T04:52:16.665Z,8.20
2022-09-12T04:54:44.119Z,8.52
2022-09-12T04:57:11.765Z,8.75
2022-09-12T04:59:39.457Z,7.40
2022-09-12T05:02:06.840Z,8.55
2022-09-12T05:04:34.911Z,8.70
2022-09-12T05:07:02.925Z,8.45
2022-09-12T05:09:30.311Z,8.50
2022-09-12T05:12:05.750Z,8.55
2022-09-12T05:14:34.257Z,9.23
2022-09-12T05:17:02.796Z,8.35
2022-09-12T05:19:30.990Z,8.75
2022-09-12T05:21:59.044Z,8.57
2022-09-12T05:24:26.892Z,8.32
2022-09-12T05:26:54.242Z,8.52
2022-09-12T05:29:22.052Z,9.18
2022-09-12T05:31:52.110Z,9.70
2022-09-12T05:34:20.737Z,9.25
2022-09-12T05:36:49.125Z,8.77
2022-09-12T05:39:16.889Z,8.25
2022-09-12T05:41:44.255Z,8.85
2022-09-12T05:44:12.622Z,8.15
2022-09-12T05:46:42.496Z,8.75
2022-09-12T05:49:12.083Z,7.60
2022-09-12T05:51:42.683Z,8.85
2022-09-12T05:54:12.033Z,8.68
2022-09-12T05:56:59.365Z,8.52
2022-09-12T05:59:28.486Z,8.75
2022-09-12T06:01:56.214Z,8.15
2022-09-12T06:04:23.950Z,8.30
2022-09-12T06:06:51.943Z,8.32
2022-09-12T06:09:19.363Z,8.90
2022-09-12T06:11:47.344Z,8.93
2022-09-12T06:14:16.503Z,8.30
2022-09-12T06:16:43.922Z,8.30
2022-09-12T06:19:19.122Z,8.13
2022-09-12T06:24:16.342Z,7.97
2022-09-12T06:26:43.929Z,8.23
2022-09-12T06:29:11.905Z,9.35
2022-09-12T06:31:42.117Z,9.18
2022-09-12T06:34:12.207Z,8.55
2022-09-12T06:36:43.182Z,8.15
2022-09-12T06:39:12.714Z,8.48
2022-09-12T06:41:43.962Z,7.85
2022-09-12T06:44:17.140Z,7.95
2022-09-12T06:46:45.382Z,8.23
2022-09-12T06:49:13.431Z,7.80
2022-09-12T06:51:43.575Z,7.43
2022-09-12T06:54:15.708Z,7.05
2022-09-12T06:56:43.219Z,6.75
2022-09-12T06:59:10.931Z,7.32
2022-09-12T07:01:38.426Z,6.75
2022-09-12T07:04:06.179Z,7.35
2022-09-12T07:06:41.552Z,6.68
2022-09-12T07:09:14.400Z,6.00
2022-09-12T07:11:42.370Z,6.22
2022-09-12T07:14:12.969Z,7.22
2022-09-12T07:16:40.367Z,5.97
2022-09-12T07:19:09.021Z,7.15
2022-09-12T07:21:40.031Z,6.45
2022-09-12T07:24:09.904Z,6.62
2022-09-12T07:26:38.694Z,6.50
2022-09-12T07:29:32.772Z,6.40
2022-09-12T07:31:53.832Z,5.35
2022-09-12T07:34:21.214Z,4.72
2022-09-12T07:36:48.573Z,5.20
2022-09-12T07:39:16.347Z,4.55
2022-09-12T07:41:43.777Z,4.78
2022-09-12T07:44:11.175Z,4.75
2022-09-12T07:46:39.957Z,4.45
2022-09-12T07:49:08.559Z,4.47
2022-09-12T07:51:36.103Z,4.90
2022-09-12T07:54:07.864Z,4.68
2022-09-12T07:56:38.906Z,5.57
2022-09-12T07:59:08.399Z,6.55
2022-09-12T08:01:36.381Z,4.37
2022-09-12T08:04:05.202Z,4.45
2022-09-12T08:06:35.904Z,4.40
2022-09-12T08:09:04.892Z,3.65
2022-09-12T08:11:32.390Z,3.45
2022-09-12T08:14:01.774Z,3.47
2022-09-12T08:16:31.331Z,3.62
2022-09-12T08:19:01.028Z,3.83
2022-09-12T08:21:31.521Z,3.45
2022-09-12T08:24:01.323Z,3.08
2022-09-12T08:26:29.620Z,3.67
2022-09-12T08:28:57.070Z,3.75
2022-09-12T08:31:25.603Z,3.87
2022-09-12T08:33:56.103Z,3.70
2022-09-12T08:36:25.772Z,4.25
2022-09-12T08:39:02.393Z,3.50
2022-09-12T08:41:31.980Z,3.55
2022-09-12T08:44:32.105Z,3.60
2022-09-12T08:47:08.768Z,3.55
2022-09-12T08:49:44.626Z,3.17
2022-09-12T08:52:17.479Z,3.17
2022-09-12T08:54:47.943Z,2.60
2022-09-12T08:57:15.827Z,2.80
2022-09-12T08:59:44.914Z,2.40
2022-09-12T09:02:24.875Z,2.92
2022-09-12T09:04:57.266Z,2.90
2022-09-12T09:07:37.479Z,2.58
2022-09-12T09:10:23.086Z,2.42
2022-09-12T09:13:08.859Z,2.08
2022-09-12T09:16:11.771Z,2.70
2022-09-12T09:18:40.049Z,2.67
2022-09-12T09:21:20.422Z,2.42
2022-09-12T09:23:53.584Z,2.20
2022-09-12T09:26:56.517Z,2.20
2022-09-12T09:29:28.259Z,2.17
2022-09-12T09:31:57.889Z,2.55
2022-09-12T09:34:30.197Z,2.92
2022-09-12T09:37:01.387Z,2.22
2022-09-12T09:39:49.193Z,2.80
2022-09-12T09:42:23.460Z,2.90
2022-09-12T09:44:53.148Z,3.03
2022-09-12T09:47:20.712Z,2.80
2022-09-12T09:49:48.055Z,2.20
2022-09-12T09:52:17.609Z,2.90
2022-09-12T09:54:49.627Z,2.30
2022-09-12T09:57:35.606Z,2.03
2022-09-12T10:00:22.701Z,2.83
2022-09-12T10:03:13.379Z,2.62
2022-09-12T10:05:53.117Z,2.70
2022-09-12T10:08:22.150Z,2.80
2022-09-12T10:11:19.458Z,2.37
2022-09-12T10:14:00.603Z,2.22
2022-09-12T10:16:33.246Z,2.45
2022-09-12T10:19:03.151Z,2.40
2022-09-12T10:21:41.368Z,2.80
2022-09-12T10:24:33.358Z,2.62
2022-09-12T10:27:23.291Z,2.53
2022-09-12T10:29:55.961Z,2.70
2022-09-12T10:32:36.362Z,2.92
2022-09-12T10:35:09.240Z,2.62
2022-09-12T10:37:39.639Z,3.42
2022-09-12T10:40:21.606Z,2.60
2022-09-12T10:42:50.396Z,2.62
2022-09-12T10:45:31.175Z,3.20
2022-09-12T10:48:05.415Z,3.28
2022-09-12T10:50:42.739Z,3.20
2022-09-12T10:53:34.765Z,3.20
2022-09-12T10:56:07.324Z,3.45
2022-09-12T10:58:39.537Z,3.20
2022-09-12T11:01:17.772Z,3.10
2022-09-12T11:04:10.230Z,3.50
2022-09-12T11:07:01.940Z,3.10
2022-09-12T11:09:39.544Z,3.08
2022-09-12T11:12:10.419Z,3.08
2022-09-12T11:15:00.698Z,3.95
2022-09-12T11:17:52.047Z,3.30
2022-09-12T11:20:42.158Z,3.33
2022-09-12T11:23:47.599Z,3.30
2022-09-12T11:26:19.173Z,2.90
2022-09-12T11:29:19.328Z,3.03
2022-09-12T11:31:56.992Z,3.05
2022-09-12T11:34:44.845Z,3.10
2022-09-12T11:37:25.203Z,3.28
2022-09-12T11:39:55.622Z,3.47
2022-09-12T11:42:29.406Z,3.47
2022-09-12T11:45:05.921Z,3.57
2022-09-12T11:47:35.245Z,3.35
2022-09-12T11:50:06.022Z,3.70
2022-09-12T11:52:37.407Z,3.55
2022-09-12T11:55:20.125Z,3.67
2022-09-12T11:57:54.242Z,3.97
2022-09-12T12:00:32.920Z,3.65
2022-09-12T12:03:06.571Z,3.42
2022-09-12T12:05:54.409Z,3.20
2022-09-12T12:08:27.586Z,3.00
2022-09-12T12:11:07.848Z,3.00
2022-09-12T12:13:48.490Z,3.17
2022-09-12T12:16:21.480Z,3.08
2022-09-12T12:18:55.694Z,3.15
2022-09-12T12:21:32.051Z,3.05
2022-09-12T12:24:04.839Z,3.00
2022-09-12T12:26:41.484Z,3.03
2022-09-12T12:29:13.946Z,3.40
2022-09-12T12:32:10.360Z,2.83
2022-09-12T12:34:43.011Z,2.80
2022-09-12T12:37:19.325Z,3.12
2022-09-12T12:39:48.093Z,2.90
2022-09-12T12:43:02.514Z,3.50
2022-09-12T12:45:30.054Z,3.25
2022-09-12T12:48:05.083Z,3.17
2022-09-12T12:50:35.788Z,3.00
2022-09-12T12:53:05.449Z,2.60
2022-09-12T12:55:35.169Z,2.80
2022-09-12T12:58:03.449Z,3.12
2022-09-12T13:00:40.065Z,3.33
2022-09-12T13:03:10.643Z,2.80
2022-09-12T13:05:44.371Z,2.85
2022-09-12T13:08:28.820Z,2.90
2022-09-12T13:10:59.852Z,2.72
2022-09-12T13:13:36.399Z,2.80
2022-09-12T13:16:03.972Z,2.78
2022-09-12T13:18:52.035Z,2.47
2022-09-12T13:21:21.610Z,2.42
2022-09-12T13:24:02.582Z,2.30
2022-09-12T13:26:35.510Z,2.55
2022-09-12T13:29:15.773Z,2.20
2022-09-12T13:31:47.339Z,1.87
2022-09-12T13:34:21.340Z,1.75
2022-09-12T13:37:12.488Z,2.00
2022-09-12T13:39:40.090Z,2.05
2022-09-12T13:42:48.573Z,2.10
2022-09-12T13:45:21.246Z,1.80
2022-09-12T13:47:58.540Z,1.70
2022-09-12T13:50:29.084Z,1.92
2022-09-12T13:52:59.277Z,1.50
2022-09-12T13:55:35.202Z,1.98
2022-09-12T13:58:14.046Z,1.80
2022-09-12T14:00:41.685Z,1.55
2022-09-12T14:03:44.693Z,1.55
2022-09-12T14:06:12.888Z,1.60
2022-09-12T14:08:43.480Z,1.40
2022-09-12T14:11:11.728Z,2.10
2022-09-12T14:13:39.359Z,1.20
2022-09-12T14:16:10.109Z,1.55
2022-09-12T14:18:38.734Z,1.52
2022-09-12T14:21:36.892Z,1.48
2022-09-12T14:24:07.004Z,1.90
2022-09-12T14:26:36.559Z,1.42
2022-09-12T14:29:07.888Z,1.80
2022-09-12T14:31:37.559Z,1.27
2022-09-12T14:34:11.132Z,1.20
2022-09-12T14:36:56.328Z,1.30
2022-09-12T14:39:33.946Z,1.58
2022-09-12T14:42:17.025Z,1.10
2022-09-12T14:44:53.295Z,1.20
2022-09-12T14:47:23.608Z,1.70
2022-09-12T14:49:54.114Z,1.30
2022-09-12T14:52:23.547Z,1.45
2022-09-12T14:55:03.629Z,1.23
2022-09-12T14:57:35.347Z,1.25
2022-09-12T15:00:14.754Z,1.27
2022-09-12T15:02:43.363Z,1.20
2022-09-12T15:05:11.078Z,1.30
2022-09-12T15:07:40.506Z,1.60
2022-09-12T15:10:18.860Z,1.02
2022-09-12T15:12:46.514Z,1.20
2022-09-12T15:15:16.331Z,1.05
2022-09-12T15:17:43.971Z,1.20
2022-09-12T15:20:13.154Z,1.50
2022-09-12T15:22:40.885Z,1.27
2022-09-12T15:25:09.814Z,1.27
2022-09-12T15:27:40.859Z,1.37
2022-09-12T15:30:10.364Z,1.37
2022-09-12T15:32:38.061Z,1.37
2022-09-12T15:35:15.805Z,1.45
2022-09-12T15:37:43.495Z,1.17
2022-09-12T15:40:12.244Z,0.93
2022-09-12T15:42:39.795Z,1.15
2022-09-12T15:45:17.545Z,1.08
2022-09-12T15:47:44.922Z,1.08
2022-09-12T15:50:12.784Z,0.95
2022-09-12T15:52:41.036Z,1.85
2022-09-12T15:55:20.775Z,1.05
2022-09-12T15:57:48.844Z,1.08
2022-09-12T16:00:17.849Z,1.30
2022-09-12T16:02:47.022Z,1.27
2022-09-12T16:05:17.698Z,1.40
2022-09-12T16:07:45.551Z,1.30
2022-09-12T16:10:17.362Z,1.15
2022-09-12T16:12:46.140Z,1.25
2022-09-12T16:15:16.110Z,1.00
2022-09-12T16:17:43.620Z,0.80
2022-09-12T16:20:11.505Z,1.35
2022-09-12T16:22:39.267Z,0.80
2022-09-12T16:25:07.995Z,1.17
2022-09-12T16:27:36.382Z,0.90
2022-09-12T16:30:06.375Z,1.08
2022-09-12T16:32:33.735Z,0.80
2022-09-12T16:35:01.987Z,1.08
2022-09-12T16:37:29.448Z,1.00
2022-09-12T16:39:56.953Z,1.00
2022-09-12T16:42:24.692Z,1.10
2022-09-12T16:44:52.461Z,1.05
2022-09-12T16:47:19.990Z,0.98
2022-09-12T16:49:47.633Z,1.08
2022-09-12T16:52:16.674Z,0.90
2022-09-12T16:54:46.808Z,1.00
2022-09-12T16:57:14.815Z,1.12
2022-09-12T16:59:42.191Z,1.10
2022-09-12T17:02:13.704Z,1.05
2022-09-12T17:04:41.727Z,1.08
2022-09-12T17:07:09.283Z,0.90
2022-09-12T17:09:36.755Z,0.98
2022-09-12T17:12:04.518Z,1.02
2022-09-12T17:14:31.966Z,0.93
2022-09-12T17:16:59.443Z,1.10
2022-09-12T17:19:29.783Z,0.90
2022-09-12T17:21:57.662Z,0.98
2022-09-12T17:24:25.630Z,1.10
2022-09-12T17:26:53.908Z,1.00
2022-09-12T17:29:22.896Z,1.40
2022-09-12T17:31:50.476Z,1.10
2022-09-12T17:34:18.316Z,1.40
2022-09-12T17:36:46.290Z,1.10
2022-09-12T17:39:14.735Z,1.30
2022-09-12T17:41:42.946Z,1.20
2022-09-12T17:44:14.971Z,1.40
2022-09-12T17:46:42.865Z,1.30
2022-09-12T17:49:18.700Z,1.45
2022-09-12T17:51:46.709Z,1.20
2022-09-12T17:54:17.345Z,1.23
2022-09-12T17:56:46.653Z,1.33
2022-09-12T17:59:17.534Z,1.10
2022-09-12T18:02:03.926Z,1.12
2022-09-12T18:04:32.822Z,1.45
2022-09-12T18:07:00.690Z,1.50
2022-09-12T18:09:28.676Z,1.15
2022-09-12T18:11:57.397Z,1.35
2022-09-12T18:14:27.460Z,1.17
2022-09-12T18:16:57.320Z,1.23
2022-09-12T18:19:25.293Z,1.08
2022-09-12T18:21:54.790Z,1.10
2022-09-12T18:24:22.826Z,1.10
2022-09-12T18:26:50.948Z,1.30
2022-09-12T18:29:20.337Z,0.93
2022-09-12T18:31:47.954Z,1.20
2022-09-12T18:34:16.942Z,1.25
2022-09-12T18:36:47.296Z,1.50
2022-09-12T18:39:16.011Z,1.20
2022-09-12T18:41:44.395Z,1.08
2022-09-12T18:44:12.835Z,1.20
2022-09-12T18:46:41.005Z,1.30
2022-09-12T18:49:09.487Z,1.30
2022-09-12T18:51:40.270Z,1.00
2022-09-12T18:54:13.421Z,1.00
2022-09-12T18:56:43.576Z,1.10
2022-09-12T18:59:14.389Z,1.23
2022-09-12T19:01:43.221Z,1.20
2022-09-12T19:04:12.959Z,1.60
2022-09-12T19:06:42.567Z,1.48
2022-09-12T19:09:11.746Z,1.58
2022-09-12T19:11:42.823Z,1.62
2022-09-12T19:14:10.617Z,1.75
2022-09-12T19:16:38.519Z,1.52
2022-09-12T19:19:07.162Z,1.30
2022-09-12T19:21:37.154Z,1.10
2022-09-12T19:24:10.470Z,1.50
2022-09-12T19:26:39.483Z,1.52
2022-09-12T19:29:08.719Z,1.40
2022-09-12T19:31:36.483Z,1.50
2022-09-12T19:34:08.182Z,1.70
2022-09-12T19:36:51.706Z,1.40
2022-09-12T19:39:19.983Z,1.50
2022-09-12T19:41:48.515Z,1.80
2022-09-12T19:44:19.189Z,1.70
2022-09-12T19:46:47.260Z,1.65
2022-09-12T19:49:15.094Z,1.75
2022-09-12T19:51:43.965Z,1.90
2022-09-12T19:54:11.708Z,1.92
2022-09-12T19:56:39.609Z,2.10
2022-09-12T19:59:07.029Z,1.60
2022-09-12T20:01:37.338Z,1.87
2022-09-12T20:04:05.648Z,1.77
2022-09-12T20:06:33.025Z,2.10
2022-09-12T20:09:00.419Z,2.05
2022-09-12T20:11:28.411Z,1.83
2022-09-12T20:13:55.763Z,1.77
2022-09-12T20:16:29.657Z,1.73
2022-09-12T20:19:00.726Z,1.55
2022-09-12T20:21:31.910Z,2.00
2022-09-12T20:24:08.513Z,2.30
2022-09-12T20:26:36.558Z,2.28
2022-09-12T20:29:05.559Z,2.78
2022-09-12T20:31:33.900Z,2.30
2022-09-12T20:34:01.479Z,1.90
2022-09-12T20:36:29.170Z,2.40
2022-09-12T20:39:00.022Z,2.35
2022-09-12T20:41:29.682Z,2.37
2022-09-12T20:43:58.137Z,2.20
2022-09-12T20:46:27.188Z,2.40
2022-09-12T20:48:54.811Z,2.40
2022-09-12T20:51:23.163Z,2.05
2022-09-12T20:53:54.472Z,2.30
2022-09-12T20:56:23.496Z,2.17
2022-09-12T20:58:51.117Z,2.10
2022-09-12T21:01:18.673Z,2.20
2022-09-12T21:03:46.604Z,2.33
2022-09-12T21:06:17.019Z,2.35
2022-09-12T21:08:45.874Z,2.47
2022-09-12T21:11:14.056Z,2.47
2022-09-12T21:13:41.759Z,2.55
2022-09-12T21:16:14.681Z,2.20
2022-09-12T21:18:42.795Z,2.15
2022-09-12T21:21:11.988Z,2.10
2022-09-12T21:23:39.928Z,2.17
2022-09-12T21:26:08.136Z,2.55
2022-09-12T21:28:35.667Z,2.58
2022-09-12T21:31:03.324Z,2.22
2022-09-12T21:33:31.107Z,2.45
2022-09-12T21:36:05.734Z,2.62
2022-09-12T21:41:09.449Z,2.72
2022-09-12T21:43:37.746Z,3.60
2022-09-12T21:46:06.206Z,3.60
2022-09-12T21:48:34.122Z,3.25
2022-09-12T21:51:01.964Z,3.28
2022-09-12T21:53:29.341Z,2.97
2022-09-12T21:56:01.470Z,2.67
2022-09-12T21:58:29.158Z,2.70
2022-09-12T22:00:56.957Z,3.00
2022-09-12T22:03:26.089Z,2.72
2022-09-12T22:06:01.604Z,2.60
2022-09-12T22:08:30.333Z,2.47
2022-09-12T22:10:59.644Z,2.72
2022-09-12T22:13:27.249Z,2.65
2022-09-12T22:15:55.060Z,2.40
2022-09-12T22:18:22.529Z,2.70
2022-09-12T22:20:50.020Z,2.80
2022-09-12T22:23:36.473Z,2.42
2022-09-12T22:26:03.854Z,2.65
2022-09-12T22:28:32.266Z,3.20
2022-09-12T22:30:59.827Z,3.00
2022-09-12T22:33:28.087Z,2.85
2022-09-12T22:35:55.697Z,2.70
2022-09-12T22:38:23.054Z,3.03
2022-09-12T22:40:50.452Z,3.25
2022-09-12T22:43:19.148Z,2.87
2022-09-12T22:45:46.706Z,2.60
2022-09-12T22:48:14.239Z,2.53
2022-09-12T22:50:41.912Z,2.75
2022-09-12T22:53:09.294Z,2.72
2022-09-12T22:55:36.755Z,2.75
2022-09-12T22:58:04.420Z,2.90
2022-09-12T23:00:32.035Z,4.53
2022-09-12T23:02:59.544Z,3.30
2022-09-12T23:05:27.558Z,2.45
2022-09-12T23:07:55.613Z,2.65
2022-09-12T23:10:22.977Z,2.22
2022-09-12T23:12:50.585Z,2.62
2022-09-12T23:15:17.948Z,2.40
2022-09-12T23:17:45.325Z,2.90
2022-09-12T23:20:12.957Z,2.33
2022-09-12T23:22:40.346Z,2.40
2022-09-12T23:25:08.914Z,2.78
2022-09-12T23:27:36.540Z,3.00
2022-09-12T23:30:04.207Z,2.85
2022-09-12T23:32:31.613Z,3.33
2022-09-12T23:34:59.394Z,3.22
2022-09-12T23:37:27.039Z,2.87
2022-09-12T23:39:54.411Z,2.62
2022-09-12T23:42:22.299Z,2.83
2022-09-12T23:44:49.681Z,2.60
2022-09-12T23:47:18.449Z,3.20
2022-09-12T23:49:46.083Z,2.45
2022-09-12T23:52:13.445Z,2.95
2022-09-12T23:54:40.804Z,3.03
2022-09-12T23:57:08.444Z,2.87
2022-09-12T23:59:35.875Z,3.22
